sensor_id;sensor_type;location;lat;lon;timestamp;temperature;humidity
31525;DHT22;18134;52.298;8.888;2024-01-07T00:01:21;0.50;99.90
31525;DHT22;18134;52.298;8.888;2024-01-07T00:03:46;0.30;99.90
31525;DHT22;18134;52.298;8.888;2024-01-07T00:06:12;0.70;99.90
31525;DHT22;18134;52.298;8.888;2024-01-07T00:08:38;0.30;99.90
31525;DHT22;18134;52.298;8.888;2024-01-07T00:11:03;0.30;99.90
31525;DHT22;18134;52.298;8.888;2024-01-07T00:13:29;0.30;99.90
31525;DHT22;18134;52.298;8.888;2024-01-07T00:15:55;0.30;99.90
31525;DHT22;18134;52.298;8.888;2024-01-07T00:18:21;0.30;99.90
31525;DHT22;18134;52.298;8.888;2024-01-07T00:20:47;0.30;99.90
31525;DHT22;18134;52.298;8.888;2024-01-07T00:23:13;0.30;99.90
31525;DHT22;18134;52.298;8.888;2024-01-07T00:25:38;0.30;99.90
31525;DHT22;18134;52.298;8.888;2024-01-07T00:28:04;0.80;99.90
31525;DHT22;18134;52.298;8.888;2024-01-07T00:30:30;0.30;99.90
31525;DHT22;18134;52.298;8.888;2024-01-07T00:32:55;0.90;99.90
31525;DHT22;18134;52.298;8.888;2024-01-07T00:35:21;0.30;99.90
31525;DHT22;18134;52.298;8.888;2024-01-07T00:37:46;0.20;99.90
31525;DHT22;18134;52.298;8.888;2024-01-07T00:40:14;0.70;99.90
31525;DHT22;18134;52.298;8.888;2024-01-07T00:42:41;0.30;99.90
31525;DHT22;18134;52.298;8.888;2024-01-07T00:45:07;0.30;99.90
31525;DHT22;18134;52.298;8.888;2024-01-07T00:47:34;0.30;99.90
31525;DHT22;18134;52.298;8.888;2024-01-07T00:49:59;0.30;99.90
31525;DHT22;18134;52.298;8.888;2024-01-07T00:52:25;0.30;99.90
31525;DHT22;18134;52.298;8.888;2024-01-07T00:54:51;0.30;99.90
31525;DHT22;18134;52.298;8.888;2024-01-07T00:57:16;0.30;99.90
31525;DHT22;18134;52.298;8.888;2024-01-07T00:59:42;0.30;99.90
31525;DHT22;18134;52.298;8.888;2024-01-07T01:02:07;0.30;99.90
31525;DHT22;18134;52.298;8.888;2024-01-07T01:04:33;0.70;99.90
31525;DHT22;18134;52.298;8.888;2024-01-07T01:06:59;0.50;99.90
31525;DHT22;18134;52.298;8.888;2024-01-07T01:09:27;0.30;99.90
31525;DHT22;18134;52.298;8.888;2024-01-07T01:11:53;0.30;99.90
31525;DHT22;18134;52.298;8.888;2024-01-07T01:14:20;0.30;99.90
31525;DHT22;18134;52.298;8.888;2024-01-07T01:16:46;0.30;99.90
31525;DHT22;18134;52.298;8.888;2024-01-07T01:19:12;0.30;99.90
31525;DHT22;18134;52.298;8.888;2024-01-07T01:21:37;0.00;99.90
31525;DHT22;18134;52.298;8.888;2024-01-07T01:24:03;0.20;99.90
31525;DHT22;18134;52.298;8.888;2024-01-07T01:26:29;0.30;99.90
31525;DHT22;18134;52.298;8.888;2024-01-07T01:28:54;0.70;99.90
31525;DHT22;18134;52.298;8.888;2024-01-07T01:31:20;0.20;99.90
31525;DHT22;18134;52.298;8.888;2024-01-07T01:33:46;0.30;99.90
31525;DHT22;18134;52.298;8.888;2024-01-07T01:36:11;0.40;99.90
31525;DHT22;18134;52.298;8.888;2024-01-07T01:38:37;0.30;99.90
31525;DHT22;18134;52.298;8.888;2024-01-07T01:41:02;0.10;99.90
31525;DHT22;18134;52.298;8.888;2024-01-07T01:43:28;0.20;99.90
31525;DHT22;18134;52.298;8.888;2024-01-07T01:45:54;0.20;99.90
31525;DHT22;18134;52.298;8.888;2024-01-07T01:48:21;0.50;99.90
31525;DHT22;18134;52.298;8.888;2024-01-07T01:50:49;0.40;99.90
31525;DHT22;18134;52.298;8.888;2024-01-07T01:53:15;0.30;99.90
31525;DHT22;18134;52.298;8.888;2024-01-07T01:55:41;0.20;99.90
31525;DHT22;18134;52.298;8.888;2024-01-07T01:58:08;0.10;99.90
31525;DHT22;18134;52.298;8.888;2024-01-07T02:00:34;0.20;99.90
31525;DHT22;18134;52.298;8.888;2024-01-07T02:02:59;0.30;99.90
31525;DHT22;18134;52.298;8.888;2024-01-07T02:05:26;0.20;99.90
31525;DHT22;18134;52.298;8.888;2024-01-07T02:07:52;0.40;99.90
31525;DHT22;18134;52.298;8.888;2024-01-07T02:10:18;0.20;99.90
31525;DHT22;18134;52.298;8.888;2024-01-07T02:12:44;0.40;99.90
31525;DHT22;18134;52.298;8.888;2024-01-07T02:15:09;0.20;99.90
31525;DHT22;18134;52.298;8.888;2024-01-07T02:17:35;0.40;99.90
31525;DHT22;18134;52.298;8.888;2024-01-07T02:20:01;0.40;99.90
31525;DHT22;18134;52.298;8.888;2024-01-07T02:22:26;0.40;99.90
31525;DHT22;18134;52.298;8.888;2024-01-07T02:24:52;0.30;99.90
31525;DHT22;18134;52.298;8.888;2024-01-07T02:27:17;0.30;99.90
31525;DHT22;18134;52.298;8.888;2024-01-07T02:29:43;0.20;99.90
31525;DHT22;18134;52.298;8.888;2024-01-07T02:32:08;0.10;99.90
31525;DHT22;18134;52.298;8.888;2024-01-07T02:34:34;0.20;99.90
31525;DHT22;18134;52.298;8.888;2024-01-07T02:36:59;0.10;99.90
31525;DHT22;18134;52.298;8.888;2024-01-07T02:39:25;0.10;99.90
31525;DHT22;18134;52.298;8.888;2024-01-07T02:41:50;0.10;99.90
31525;DHT22;18134;52.298;8.888;2024-01-07T02:44:16;-0.20;99.90
31525;DHT22;18134;52.298;8.888;2024-01-07T02:46:43;0.00;99.90
31525;DHT22;18134;52.298;8.888;2024-01-07T02:49:08;-0.30;99.90
31525;DHT22;18134;52.298;8.888;2024-01-07T02:51:34;-0.40;99.90
31525;DHT22;18134;52.298;8.888;2024-01-07T02:53:59;-0.10;99.90
31525;DHT22;18134;52.298;8.888;2024-01-07T02:56:26;-0.30;99.90
31525;DHT22;18134;52.298;8.888;2024-01-07T02:58:52;-0.30;99.90
31525;DHT22;18134;52.298;8.888;2024-01-07T03:01:17;-0.30;99.90
31525;DHT22;18134;52.298;8.888;2024-01-07T03:03:45;-0.10;99.90
31525;DHT22;18134;52.298;8.888;2024-01-07T03:06:11;-0.10;99.90
31525;DHT22;18134;52.298;8.888;2024-01-07T03:08:44;0.00;99.90
31525;DHT22;18134;52.298;8.888;2024-01-07T03:11:10;-0.30;99.90
31525;DHT22;18134;52.298;8.888;2024-01-07T03:13:36;-0.30;99.90
31525;DHT22;18134;52.298;8.888;2024-01-07T03:16:01;-0.10;99.90
31525;DHT22;18134;52.298;8.888;2024-01-07T03:18:27;-0.30;99.90
31525;DHT22;18134;52.298;8.888;2024-01-07T03:20:53;-0.40;99.90
31525;DHT22;18134;52.298;8.888;2024-01-07T03:23:19;-0.30;99.90
31525;DHT22;18134;52.298;8.888;2024-01-07T03:25:45;-0.40;99.90
31525;DHT22;18134;52.298;8.888;2024-01-07T03:28:10;-0.10;99.90
31525;DHT22;18134;52.298;8.888;2024-01-07T03:30:36;-0.50;99.90
31525;DHT22;18134;52.298;8.888;2024-01-07T03:33:01;-0.30;99.90
31525;DHT22;18134;52.298;8.888;2024-01-07T03:35:27;-0.40;99.90
31525;DHT22;18134;52.298;8.888;2024-01-07T03:37:55;-0.50;99.90
31525;DHT22;18134;52.298;8.888;2024-01-07T03:40:20;-0.20;99.90
31525;DHT22;18134;52.298;8.888;2024-01-07T03:42:46;-0.40;99.90
31525;DHT22;18134;52.298;8.888;2024-01-07T03:45:11;-0.30;99.90
31525;DHT22;18134;52.298;8.888;2024-01-07T03:47:37;-0.30;99.90
31525;DHT22;18134;52.298;8.888;2024-01-07T03:50:02;-0.50;99.90
31525;DHT22;18134;52.298;8.888;2024-01-07T03:52:28;-0.40;99.90
31525;DHT22;18134;52.298;8.888;2024-01-07T03:54:55;-0.30;99.90
31525;DHT22;18134;52.298;8.888;2024-01-07T03:57:23;-0.40;99.90
31525;DHT22;18134;52.298;8.888;2024-01-07T03:59:48;-0.30;99.90
31525;DHT22;18134;52.298;8.888;2024-01-07T04:02:14;-0.40;99.90
31525;DHT22;18134;52.298;8.888;2024-01-07T04:04:42;-0.20;99.90
31525;DHT22;18134;52.298;8.888;2024-01-07T04:07:07;-0.40;99.90
31525;DHT22;18134;52.298;8.888;2024-01-07T04:09:33;-0.10;99.90
31525;DHT22;18134;52.298;8.888;2024-01-07T04:11:58;-0.10;99.90
31525;DHT22;18134;52.298;8.888;2024-01-07T04:14:24;-0.20;99.90
31525;DHT22;18134;52.298;8.888;2024-01-07T04:16:53;-0.30;99.90
31525;DHT22;18134;52.298;8.888;2024-01-07T04:19:18;-0.20;99.90
31525;DHT22;18134;52.298;8.888;2024-01-07T04:21:47;-0.20;99.90
31525;DHT22;18134;52.298;8.888;2024-01-07T04:24:13;-0.30;99.90
31525;DHT22;18134;52.298;8.888;2024-01-07T04:26:39;-0.10;99.90
31525;DHT22;18134;52.298;8.888;2024-01-07T04:29:04;-0.20;99.90
31525;DHT22;18134;52.298;8.888;2024-01-07T04:31:30;-0.20;99.90
31525;DHT22;18134;52.298;8.888;2024-01-07T04:33:55;-0.80;99.90
31525;DHT22;18134;52.298;8.888;2024-01-07T04:36:21;-0.40;99.90
31525;DHT22;18134;52.298;8.888;2024-01-07T04:38:46;-0.40;99.90
31525;DHT22;18134;52.298;8.888;2024-01-07T04:41:12;-0.50;99.90
31525;DHT22;18134;52.298;8.888;2024-01-07T04:43:37;-0.20;99.90
31525;DHT22;18134;52.298;8.888;2024-01-07T04:46:05;-0.40;99.90
31525;DHT22;18134;52.298;8.888;2024-01-07T04:48:31;-0.20;99.90
31525;DHT22;18134;52.298;8.888;2024-01-07T04:50:57;-0.40;99.90
31525;DHT22;18134;52.298;8.888;2024-01-07T04:53:22;-0.30;99.90
31525;DHT22;18134;52.298;8.888;2024-01-07T04:55:48;-0.20;99.90
31525;DHT22;18134;52.298;8.888;2024-01-07T04:58:13;-0.70;99.90
31525;DHT22;18134;52.298;8.888;2024-01-07T05:00:39;-0.60;99.90
31525;DHT22;18134;52.298;8.888;2024-01-07T05:03:04;-0.40;99.90
31525;DHT22;18134;52.298;8.888;2024-01-07T05:05:30;-0.60;99.90
31525;DHT22;18134;52.298;8.888;2024-01-07T05:07:56;-0.70;99.90
31525;DHT22;18134;52.298;8.888;2024-01-07T05:10:27;-0.70;99.90
31525;DHT22;18134;52.298;8.888;2024-01-07T05:12:52;-0.70;99.90
31525;DHT22;18134;52.298;8.888;2024-01-07T05:15:18;-0.80;99.90
31525;DHT22;18134;52.298;8.888;2024-01-07T05:17:44;-0.70;99.90
31525;DHT22;18134;52.298;8.888;2024-01-07T05:20:09;-0.40;99.90
31525;DHT22;18134;52.298;8.888;2024-01-07T05:22:35;-0.80;99.90
31525;DHT22;18134;52.298;8.888;2024-01-07T05:25:01;-0.70;99.90
31525;DHT22;18134;52.298;8.888;2024-01-07T05:27:26;-0.70;99.90
31525;DHT22;18134;52.298;8.888;2024-01-07T05:29:52;-0.80;99.90
31525;DHT22;18134;52.298;8.888;2024-01-07T05:32:20;-0.60;99.90
31525;DHT22;18134;52.298;8.888;2024-01-07T05:34:45;-0.90;99.90
31525;DHT22;18134;52.298;8.888;2024-01-07T05:37:13;-0.70;99.90
31525;DHT22;18134;52.298;8.888;2024-01-07T05:39:39;-0.70;99.90
31525;DHT22;18134;52.298;8.888;2024-01-07T05:42:04;-0.60;99.90
31525;DHT22;18134;52.298;8.888;2024-01-07T05:44:32;-0.80;99.90
31525;DHT22;18134;52.298;8.888;2024-01-07T05:46:58;-0.70;99.90
31525;DHT22;18134;52.298;8.888;2024-01-07T05:49:29;-0.90;99.90
31525;DHT22;18134;52.298;8.888;2024-01-07T05:51:58;-0.50;99.90
31525;DHT22;18134;52.298;8.888;2024-01-07T05:54:23;-0.80;99.90
31525;DHT22;18134;52.298;8.888;2024-01-07T05:56:49;-0.80;99.90
31525;DHT22;18134;52.298;8.888;2024-01-07T05:59:15;-0.40;99.90
31525;DHT22;18134;52.298;8.888;2024-01-07T06:01:40;-0.80;99.90
31525;DHT22;18134;52.298;8.888;2024-01-07T06:04:06;-0.90;99.90
31525;DHT22;18134;52.298;8.888;2024-01-07T06:06:37;-0.70;99.90
31525;DHT22;18134;52.298;8.888;2024-01-07T06:09:03;-1.00;99.90
31525;DHT22;18134;52.298;8.888;2024-01-07T06:11:28;-0.70;99.90
31525;DHT22;18134;52.298;8.888;2024-01-07T06:13:54;-0.60;99.90
31525;DHT22;18134;52.298;8.888;2024-01-07T06:16:20;-0.70;99.90
31525;DHT22;18134;52.298;8.888;2024-01-07T06:18:48;-0.70;99.90
31525;DHT22;18134;52.298;8.888;2024-01-07T06:21:16;-0.70;99.90
31525;DHT22;18134;52.298;8.888;2024-01-07T06:23:43;-0.70;99.90
31525;DHT22;18134;52.298;8.888;2024-01-07T06:26:10;-0.40;99.90
31525;DHT22;18134;52.298;8.888;2024-01-07T06:28:35;-0.70;99.90
31525;DHT22;18134;52.298;8.888;2024-01-07T06:31:04;-0.50;99.90
31525;DHT22;18134;52.298;8.888;2024-01-07T06:33:30;-0.80;99.90
31525;DHT22;18134;52.298;8.888;2024-01-07T06:36:01;-0.70;99.90
31525;DHT22;18134;52.298;8.888;2024-01-07T06:38:31;-0.80;99.90
31525;DHT22;18134;52.298;8.888;2024-01-07T06:41:01;-0.80;99.90
31525;DHT22;18134;52.298;8.888;2024-01-07T06:43:30;-0.50;99.90
31525;DHT22;18134;52.298;8.888;2024-01-07T06:45:55;-0.60;99.90
31525;DHT22;18134;52.298;8.888;2024-01-07T06:48:21;-0.60;99.90
31525;DHT22;18134;52.298;8.888;2024-01-07T06:50:47;-0.50;99.90
31525;DHT22;18134;52.298;8.888;2024-01-07T06:53:12;-0.80;99.90
31525;DHT22;18134;52.298;8.888;2024-01-07T06:55:40;-0.70;99.90
31525;DHT22;18134;52.298;8.888;2024-01-07T06:58:08;-0.90;99.90
31525;DHT22;18134;52.298;8.888;2024-01-07T07:00:36;-0.80;99.90
31525;DHT22;18134;52.298;8.888;2024-01-07T07:03:05;-0.80;99.90
31525;DHT22;18134;52.298;8.888;2024-01-07T07:05:31;-0.70;99.90
31525;DHT22;18134;52.298;8.888;2024-01-07T07:07:57;-0.60;99.90
31525;DHT22;18134;52.298;8.888;2024-01-07T07:10:23;-0.90;99.90
31525;DHT22;18134;52.298;8.888;2024-01-07T07:12:48;-0.70;99.90
31525;DHT22;18134;52.298;8.888;2024-01-07T07:15:16;-0.80;99.90
31525;DHT22;18134;52.298;8.888;2024-01-07T07:17:41;-1.00;99.90
31525;DHT22;18134;52.298;8.888;2024-01-07T07:20:07;-1.10;99.90
31525;DHT22;18134;52.298;8.888;2024-01-07T07:22:35;-1.10;99.90
31525;DHT22;18134;52.298;8.888;2024-01-07T07:27:50;-1.20;99.90
31525;DHT22;18134;52.298;8.888;2024-01-07T07:30:26;-1.00;99.90
31525;DHT22;18134;52.298;8.888;2024-01-07T07:32:52;-0.90;99.90
31525;DHT22;18134;52.298;8.888;2024-01-07T07:35:18;-1.10;99.90
31525;DHT22;18134;52.298;8.888;2024-01-07T07:37:44;-1.00;99.90
31525;DHT22;18134;52.298;8.888;2024-01-07T07:40:09;-1.20;99.90
31525;DHT22;18134;52.298;8.888;2024-01-07T07:42:38;-1.20;99.90
31525;DHT22;18134;52.298;8.888;2024-01-07T07:45:04;-1.20;99.90
31525;DHT22;18134;52.298;8.888;2024-01-07T07:47:30;-1.20;99.90
31525;DHT22;18134;52.298;8.888;2024-01-07T07:49:56;-1.30;99.90
31525;DHT22;18134;52.298;8.888;2024-01-07T07:54:55;-1.30;99.90
31525;DHT22;18134;52.298;8.888;2024-01-07T07:57:21;-1.50;99.90
31525;DHT22;18134;52.298;8.888;2024-01-07T07:59:50;-1.20;99.90
31525;DHT22;18134;52.298;8.888;2024-01-07T08:02:15;-1.50;99.90
31525;DHT22;18134;52.298;8.888;2024-01-07T08:04:41;-1.30;99.90
31525;DHT22;18134;52.298;8.888;2024-01-07T08:07:10;-1.30;99.90
31525;DHT22;18134;52.298;8.888;2024-01-07T08:09:36;-1.40;99.90
31525;DHT22;18134;52.298;8.888;2024-01-07T08:12:13;-1.50;99.90
31525;DHT22;18134;52.298;8.888;2024-01-07T08:14:39;-1.50;99.90
31525;DHT22;18134;52.298;8.888;2024-01-07T08:17:15;-1.50;99.90
31525;DHT22;18134;52.298;8.888;2024-01-07T08:19:41;-1.60;99.90
31525;DHT22;18134;52.298;8.888;2024-01-07T08:22:18;-1.40;99.90
31525;DHT22;18134;52.298;8.888;2024-01-07T08:24:48;-1.50;99.90
31525;DHT22;18134;52.298;8.888;2024-01-07T08:27:21;-1.50;99.90
31525;DHT22;18134;52.298;8.888;2024-01-07T08:29:49;-1.50;99.90
31525;DHT22;18134;52.298;8.888;2024-01-07T08:32:15;-1.30;99.90
31525;DHT22;18134;52.298;8.888;2024-01-07T08:34:43;-1.40;99.90
31525;DHT22;18134;52.298;8.888;2024-01-07T08:37:08;-1.00;99.90
31525;DHT22;18134;52.298;8.888;2024-01-07T08:39:34;-1.30;99.90
31525;DHT22;18134;52.298;8.888;2024-01-07T08:42:00;-1.20;99.90
31525;DHT22;18134;52.298;8.888;2024-01-07T08:44:25;-1.10;99.90
31525;DHT22;18134;52.298;8.888;2024-01-07T08:46:51;-1.00;99.90
31525;DHT22;18134;52.298;8.888;2024-01-07T08:49:19;-1.00;99.90
31525;DHT22;18134;52.298;8.888;2024-01-07T08:51:51;-1.10;99.90
31525;DHT22;18134;52.298;8.888;2024-01-07T08:54:16;-1.00;99.90
31525;DHT22;18134;52.298;8.888;2024-01-07T08:56:44;-0.90;99.90
31525;DHT22;18134;52.298;8.888;2024-01-07T08:59:10;-1.10;99.90
31525;DHT22;18134;52.298;8.888;2024-01-07T09:01:38;-1.00;99.90
31525;DHT22;18134;52.298;8.888;2024-01-07T09:04:03;-0.90;99.90
31525;DHT22;18134;52.298;8.888;2024-01-07T09:06:35;-1.00;99.90
31525;DHT22;18134;52.298;8.888;2024-01-07T09:09:00;-0.90;99.90
31525;DHT22;18134;52.298;8.888;2024-01-07T09:11:26;-0.70;99.90
31525;DHT22;18134;52.298;8.888;2024-01-07T09:13:51;-0.90;99.90
31525;DHT22;18134;52.298;8.888;2024-01-07T09:16:17;-0.90;99.90
31525;DHT22;18134;52.298;8.888;2024-01-07T09:18:43;-0.90;99.90
31525;DHT22;18134;52.298;8.888;2024-01-07T09:21:11;-0.70;99.90
31525;DHT22;18134;52.298;8.888;2024-01-07T09:23:37;-0.80;99.90
31525;DHT22;18134;52.298;8.888;2024-01-07T09:26:03;-0.80;99.90
31525;DHT22;18134;52.298;8.888;2024-01-07T09:28:29;-0.80;99.90
31525;DHT22;18134;52.298;8.888;2024-01-07T09:30:54;-0.70;99.90
31525;DHT22;18134;52.298;8.888;2024-01-07T09:33:20;-0.70;99.90
31525;DHT22;18134;52.298;8.888;2024-01-07T09:35:48;-0.70;99.90
31525;DHT22;18134;52.298;8.888;2024-01-07T09:38:13;-0.60;99.90
31525;DHT22;18134;52.298;8.888;2024-01-07T09:40:39;-0.60;99.90
31525;DHT22;18134;52.298;8.888;2024-01-07T09:43:07;-0.60;99.90
31525;DHT22;18134;52.298;8.888;2024-01-07T09:45:44;-0.50;99.90
31525;DHT22;18134;52.298;8.888;2024-01-07T09:48:20;-0.50;99.90
31525;DHT22;18134;52.298;8.888;2024-01-07T09:50:48;-0.50;99.90
31525;DHT22;18134;52.298;8.888;2024-01-07T10:02:11;-0.50;99.90
31525;DHT22;18134;52.298;8.888;2024-01-07T10:04:37;-0.40;99.90
31525;DHT22;18134;52.298;8.888;2024-01-07T10:07:02;-0.20;99.90
31525;DHT22;18134;52.298;8.888;2024-01-07T10:09:32;-0.40;99.90
31525;DHT22;18134;52.298;8.888;2024-01-07T10:12:04;-0.30;99.90
31525;DHT22;18134;52.298;8.888;2024-01-07T10:14:35;-0.40;99.90
31525;DHT22;18134;52.298;8.888;2024-01-07T10:17:01;-0.30;99.90
31525;DHT22;18134;52.298;8.888;2024-01-07T10:19:27;-0.30;99.90
31525;DHT22;18134;52.298;8.888;2024-01-07T10:21:58;-0.20;99.90
31525;DHT22;18134;52.298;8.888;2024-01-07T10:24:24;-0.20;99.90
31525;DHT22;18134;52.298;8.888;2024-01-07T10:26:53;-0.10;99.90
31525;DHT22;18134;52.298;8.888;2024-01-07T10:29:18;-0.10;99.90
31525;DHT22;18134;52.298;8.888;2024-01-07T10:31:47;0.10;99.90
31525;DHT22;18134;52.298;8.888;2024-01-07T10:34:13;0.10;99.90
31525;DHT22;18134;52.298;8.888;2024-01-07T10:36:39;0.00;99.90
31525;DHT22;18134;52.298;8.888;2024-01-07T10:39:05;0.60;99.90
31525;DHT22;18134;52.298;8.888;2024-01-07T10:41:31;0.20;99.90
31525;DHT22;18134;52.298;8.888;2024-01-07T10:43:57;-0.10;99.90
31525;DHT22;18134;52.298;8.888;2024-01-07T10:46:23;0.00;99.90
31525;DHT22;18134;52.298;8.888;2024-01-07T10:48:55;0.00;99.90
31525;DHT22;18134;52.298;8.888;2024-01-07T10:51:24;0.00;99.90
31525;DHT22;18134;52.298;8.888;2024-01-07T10:53:51;0.10;99.90
31525;DHT22;18134;52.298;8.888;2024-01-07T10:56:19;0.00;99.90
31525;DHT22;18134;52.298;8.888;2024-01-07T10:58:47;0.20;99.90
31525;DHT22;18134;52.298;8.888;2024-01-07T11:01:14;0.00;99.90
31525;DHT22;18134;52.298;8.888;2024-01-07T11:03:40;0.10;99.90
31525;DHT22;18134;52.298;8.888;2024-01-07T11:06:16;0.10;99.90
31525;DHT22;18134;52.298;8.888;2024-01-07T11:11:37;0.10;99.90
31525;DHT22;18134;52.298;8.888;2024-01-07T11:16:51;0.30;99.90
31525;DHT22;18134;52.298;8.888;2024-01-07T11:19:19;0.30;99.90
31525;DHT22;18134;52.298;8.888;2024-01-07T11:21:48;0.30;99.90
31525;DHT22;18134;52.298;8.888;2024-01-07T11:24:59;0.30;99.90
31525;DHT22;18134;52.298;8.888;2024-01-07T11:27:02;0.40;99.90
31525;DHT22;18134;52.298;8.888;2024-01-07T11:29:28;0.30;99.90
31525;DHT22;18134;52.298;8.888;2024-01-07T11:31:59;0.50;99.90
31525;DHT22;18134;52.298;8.888;2024-01-07T11:34:40;0.20;99.90
31525;DHT22;18134;52.298;8.888;2024-01-07T11:37:12;0.30;99.90
31525;DHT22;18134;52.298;8.888;2024-01-07T11:39:44;0.30;99.90
31525;DHT22;18134;52.298;8.888;2024-01-07T11:42:11;0.30;99.90
31525;DHT22;18134;52.298;8.888;2024-01-07T11:44:50;0.40;99.90
31525;DHT22;18134;52.298;8.888;2024-01-07T11:47:19;0.40;99.90
31525;DHT22;18134;52.298;8.888;2024-01-07T11:49:46;0.50;99.90
31525;DHT22;18134;52.298;8.888;2024-01-07T11:52:11;0.50;99.90
31525;DHT22;18134;52.298;8.888;2024-01-07T11:54:38;0.40;99.90
31525;DHT22;18134;52.298;8.888;2024-01-07T11:57:04;0.60;99.90
31525;DHT22;18134;52.298;8.888;2024-01-07T11:59:30;0.40;99.90
31525;DHT22;18134;52.298;8.888;2024-01-07T12:01:56;0.30;99.90
31525;DHT22;18134;52.298;8.888;2024-01-07T12:04:21;0.50;99.90
31525;DHT22;18134;52.298;8.888;2024-01-07T12:06:48;0.50;99.90
31525;DHT22;18134;52.298;8.888;2024-01-07T12:09:16;0.60;99.90
31525;DHT22;18134;52.298;8.888;2024-01-07T12:11:44;0.30;99.90
31525;DHT22;18134;52.298;8.888;2024-01-07T12:14:10;0.40;99.90
31525;DHT22;18134;52.298;8.888;2024-01-07T12:19:57;0.30;99.90
31525;DHT22;18134;52.298;8.888;2024-01-07T12:22:23;0.50;99.90
31525;DHT22;18134;52.298;8.888;2024-01-07T12:25:10;0.40;99.90
31525;DHT22;18134;52.298;8.888;2024-01-07T12:27:36;0.20;99.90
31525;DHT22;18134;52.298;8.888;2024-01-07T12:30:04;0.30;99.90
31525;DHT22;18134;52.298;8.888;2024-01-07T12:32:29;0.30;99.90
31525;DHT22;18134;52.298;8.888;2024-01-07T12:34:59;0.50;99.90
31525;DHT22;18134;52.298;8.888;2024-01-07T12:37:28;0.30;99.90
31525;DHT22;18134;52.298;8.888;2024-01-07T12:39:55;0.30;99.90
31525;DHT22;18134;52.298;8.888;2024-01-07T12:42:20;0.30;99.90
31525;DHT22;18134;52.298;8.888;2024-01-07T12:44:47;0.40;99.90
31525;DHT22;18134;52.298;8.888;2024-01-07T12:47:19;0.50;99.90
31525;DHT22;18134;52.298;8.888;2024-01-07T12:49:56;0.50;99.90
31525;DHT22;18134;52.298;8.888;2024-01-07T12:52:23;0.50;99.90
31525;DHT22;18134;52.298;8.888;2024-01-07T12:54:50;0.60;99.90
31525;DHT22;18134;52.298;8.888;2024-01-07T12:57:17;0.50;99.90
31525;DHT22;18134;52.298;8.888;2024-01-07T12:59:46;0.80;99.90
31525;DHT22;18134;52.298;8.888;2024-01-07T13:02:12;0.40;99.90
31525;DHT22;18134;52.298;8.888;2024-01-07T13:04:37;0.80;99.90
31525;DHT22;18134;52.298;8.888;2024-01-07T13:07:03;0.50;99.90
31525;DHT22;18134;52.298;8.888;2024-01-07T13:09:29;0.50;99.90
31525;DHT22;18134;52.298;8.888;2024-01-07T13:11:54;0.50;99.90
31525;DHT22;18134;52.298;8.888;2024-01-07T13:14:20;0.80;99.90
31525;DHT22;18134;52.298;8.888;2024-01-07T13:16:46;0.60;99.90
31525;DHT22;18134;52.298;8.888;2024-01-07T13:19:11;0.60;99.90
31525;DHT22;18134;52.298;8.888;2024-01-07T13:21:38;0.80;99.90
31525;DHT22;18134;52.298;8.888;2024-01-07T13:24:03;0.90;99.90
31525;DHT22;18134;52.298;8.888;2024-01-07T13:26:29;0.60;99.90
31525;DHT22;18134;52.298;8.888;2024-01-07T13:28:55;0.70;99.90
31525;DHT22;18134;52.298;8.888;2024-01-07T13:31:20;0.70;99.90
31525;DHT22;18134;52.298;8.888;2024-01-07T13:33:46;0.60;99.90
31525;DHT22;18134;52.298;8.888;2024-01-07T13:36:12;0.80;99.90
31525;DHT22;18134;52.298;8.888;2024-01-07T13:38:38;0.60;99.90
31525;DHT22;18134;52.298;8.888;2024-01-07T13:41:07;0.60;99.90
31525;DHT22;18134;52.298;8.888;2024-01-07T13:43:33;0.80;99.90
31525;DHT22;18134;52.298;8.888;2024-01-07T13:45:59;0.40;99.90
31525;DHT22;18134;52.298;8.888;2024-01-07T13:48:26;0.50;99.90
31525;DHT22;18134;52.298;8.888;2024-01-07T13:50:52;0.20;99.90
31525;DHT22;18134;52.298;8.888;2024-01-07T13:53:19;0.30;99.90
31525;DHT22;18134;52.298;8.888;2024-01-07T13:55:44;0.50;99.90
31525;DHT22;18134;52.298;8.888;2024-01-07T13:58:12;0.30;99.90
31525;DHT22;18134;52.298;8.888;2024-01-07T14:00:37;0.40;99.90
31525;DHT22;18134;52.298;8.888;2024-01-07T14:03:03;0.40;99.90
31525;DHT22;18134;52.298;8.888;2024-01-07T14:05:29;0.10;99.90
31525;DHT22;18134;52.298;8.888;2024-01-07T14:07:54;0.20;99.90
31525;DHT22;18134;52.298;8.888;2024-01-07T14:10:20;0.10;99.90
31525;DHT22;18134;52.298;8.888;2024-01-07T14:12:45;0.20;99.90
31525;DHT22;18134;52.298;8.888;2024-01-07T14:15:11;0.10;99.90
31525;DHT22;18134;52.298;8.888;2024-01-07T14:17:37;-0.10;99.90
31525;DHT22;18134;52.298;8.888;2024-01-07T14:20:02;-0.20;99.90
31525;DHT22;18134;52.298;8.888;2024-01-07T14:22:29;-0.20;99.90
31525;DHT22;18134;52.298;8.888;2024-01-07T14:24:54;-0.20;99.90
31525;DHT22;18134;52.298;8.888;2024-01-07T14:27:20;-0.20;99.90
31525;DHT22;18134;52.298;8.888;2024-01-07T14:29:46;-0.10;99.90
31525;DHT22;18134;52.298;8.888;2024-01-07T14:32:11;-0.40;99.90
31525;DHT22;18134;52.298;8.888;2024-01-07T14:34:37;-0.30;99.90
31525;DHT22;18134;52.298;8.888;2024-01-07T14:37:03;-0.30;99.90
31525;DHT22;18134;52.298;8.888;2024-01-07T14:39:32;-0.20;99.90
31525;DHT22;18134;52.298;8.888;2024-01-07T14:41:57;-0.50;99.90
31525;DHT22;18134;52.298;8.888;2024-01-07T14:44:23;-0.50;99.90
31525;DHT22;18134;52.298;8.888;2024-01-07T14:46:48;-0.20;99.90
31525;DHT22;18134;52.298;8.888;2024-01-07T14:49:15;-0.50;99.90
31525;DHT22;18134;52.298;8.888;2024-01-07T14:51:41;-0.50;99.90
31525;DHT22;18134;52.298;8.888;2024-01-07T14:54:06;-0.60;99.90
31525;DHT22;18134;52.298;8.888;2024-01-07T14:56:32;-0.50;99.90
31525;DHT22;18134;52.298;8.888;2024-01-07T14:58:57;-0.50;99.90
31525;DHT22;18134;52.298;8.888;2024-01-07T15:01:23;-0.70;99.90
31525;DHT22;18134;52.298;8.888;2024-01-07T15:03:49;-0.60;99.90
31525;DHT22;18134;52.298;8.888;2024-01-07T15:06:15;-0.50;99.90
31525;DHT22;18134;52.298;8.888;2024-01-07T15:08:41;-0.40;99.90
31525;DHT22;18134;52.298;8.888;2024-01-07T15:11:07;-0.80;99.90
31525;DHT22;18134;52.298;8.888;2024-01-07T15:13:32;-0.90;99.90
31525;DHT22;18134;52.298;8.888;2024-01-07T15:15:59;-0.90;99.90
31525;DHT22;18134;52.298;8.888;2024-01-07T15:18:25;-0.90;99.90
31525;DHT22;18134;52.298;8.888;2024-01-07T15:20:50;-1.00;99.90
31525;DHT22;18134;52.298;8.888;2024-01-07T15:23:17;-1.00;99.90
31525;DHT22;18134;52.298;8.888;2024-01-07T15:25:43;-0.80;99.90
31525;DHT22;18134;52.298;8.888;2024-01-07T15:28:08;-1.00;99.90
31525;DHT22;18134;52.298;8.888;2024-01-07T15:30:34;-1.10;99.90
31525;DHT22;18134;52.298;8.888;2024-01-07T15:33:00;-1.10;99.90
31525;DHT22;18134;52.298;8.888;2024-01-07T15:35:25;-1.20;99.90
31525;DHT22;18134;52.298;8.888;2024-01-07T15:37:51;-1.20;99.90
31525;DHT22;18134;52.298;8.888;2024-01-07T15:40:17;-1.20;99.90
31525;DHT22;18134;52.298;8.888;2024-01-07T15:42:42;-0.90;99.90
31525;DHT22;18134;52.298;8.888;2024-01-07T15:45:08;-1.20;99.90
31525;DHT22;18134;52.298;8.888;2024-01-07T15:47:34;-1.30;99.90
31525;DHT22;18134;52.298;8.888;2024-01-07T15:50:00;-1.40;99.90
31525;DHT22;18134;52.298;8.888;2024-01-07T15:52:26;-1.00;99.90
31525;DHT22;18134;52.298;8.888;2024-01-07T15:54:53;-1.50;99.90
31525;DHT22;18134;52.298;8.888;2024-01-07T15:57:21;-1.30;99.90